Terminal Aerodrome Forecast
Issued by NWS

Home | Current Version | Previous Version | Text Only | Print | Product List | Glossary On
Versions: 1 2 3 4 5 6 7 8 9 10 11 12 13 14 15 16 17 18 19 20 21 22 23 24
528
FTUS42 KJAX 030536
TAFVQQ
TAF
KVQQ 030536Z 0306/0406 00000KT P6SM BKN250
     FM031400 04010KT P6SM SCT150 BKN250
     FM031700 05011G17KT P6SM SCT040 BKN150
     FM032300 05008KT P6SM SCT040 BKN120=

USA.gov is the U.S. government's official web portal to all federal, state and local government web resources and services.